Time;durP1;ratioP1;P1;durP2;ratioP2;P2;SDS_P1;SDS_P2;PMS_P1;PMS_P2;Temp;Humidity;BMP_temperature;BMP_pressure;BME280_temperature;BME280_humidity;BME280_pressure;Samples;Min_cycle;Max_cycle;Signal;HPM_P1;HPM_P2
2022/06/27 00:00:46;;;;;;;2.37;2.17;;;;;;;18.56;100.00;97819.38;5055517;28;20215;-75
2022/06/27 00:03:14;;;;;;;1.83;1.73;;;;;;;18.47;100.00;97804.28;5054995;28;20215;-76
2022/06/27 00:05:41;;;;;;;2.93;1.70;;;;;;;18.43;100.00;97808.31;5055006;28;20220;-75
2022/06/27 00:08:08;;;;;;;3.43;1.27;;;;;;;18.42;100.00;97811.13;5054913;28;20212;-74
2022/06/27 00:10:34;;;;;;;1.60;1.20;;;;;;;18.41;100.00;97815.63;5054489;28;20681;-75
2022/06/27 00:13:01;;;;;;;3.37;1.10;;;;;;;18.33;100.00;97842.38;5054588;28;20226;-75
2022/06/27 00:15:28;;;;;;;1.23;1.13;;;;;;;18.17;100.00;97866.34;5054643;28;20254;-76
2022/06/27 00:17:54;;;;;;;1.93;1.10;;;;;;;18.01;100.00;97898.34;5052764;28;20727;-76
2022/06/27 00:20:22;;;;;;;1.87;0.97;;;;;;;17.96;100.00;97900.66;5054541;28;20570;-76
2022/06/27 00:22:49;;;;;;;1.50;1.20;;;;;;;17.88;100.00;97897.09;5054511;28;20212;-75
2022/06/27 00:25:15;;;;;;;1.37;0.80;;;;;;;17.76;100.00;97925.91;5054213;28;20215;-74
2022/06/27 00:27:42;;;;;;;2.03;1.13;;;;;;;17.65;100.00;97939.53;5054441;28;20303;-67
2022/06/27 00:30:10;;;;;;;1.70;0.90;;;;;;;17.59;100.00;97958.00;5054393;28;20208;-66
2022/06/27 00:32:38;;;;;;;1.50;1.03;;;;;;;17.59;100.00;97982.91;5054467;28;20294;-66
2022/06/27 00:35:05;;;;;;;2.93;1.10;;;;;;;17.56;100.00;98015.25;5053721;28;20216;-66
2022/06/27 00:37:33;;;;;;;4.53;1.80;;;;;;;17.61;100.00;98066.44;5054209;28;20248;-67
2022/06/27 00:39:59;;;;;;;3.70;1.60;;;;;;;17.67;100.00;98094.41;5054352;28;20216;-63
2022/06/27 00:42:26;;;;;;;3.10;1.37;;;;;;;17.69;100.00;98146.69;5054102;28;20216;-64
2022/06/27 00:44:53;;;;;;;4.07;1.40;;;;;;;17.62;100.00;98148.28;5038653;28;20212;-63
2022/06/27 00:47:20;;;;;;;2.80;1.30;;;;;;;17.54;100.00;98116.13;5053813;28;20216;-65
2022/06/27 00:49:47;;;;;;;3.80;1.40;;;;;;;17.46;100.00;98145.44;5054039;28;20212;-64
2022/06/27 00:52:15;;;;;;;2.33;1.37;;;;;;;17.40;100.00;98140.69;5054093;28;20215;-64
2022/06/27 00:54:46;;;;;;;2.83;1.27;;;;;;;17.44;100.00;98139.38;5050254;28;20588;-66
2022/06/27 00:57:13;;;;;;;2.73;1.33;;;;;;;17.40;100.00;98146.03;5036277;28;20298;-64
2022/06/27 00:59:41;;;;;;;3.03;1.40;;;;;;;17.41;100.00;98133.50;5047430;28;20223;-64
2022/06/27 01:02:08;;;;;;;2.53;1.20;;;;;;;17.40;100.00;98110.44;5053359;28;20218;-63
2022/06/27 01:04:36;;;;;;;2.50;1.30;;;;;;;17.36;100.00;98115.22;5053319;28;20218;-65
2022/06/27 01:07:05;;;;;;;2.43;1.20;;;;;;;17.37;100.00;98095.53;5053726;28;20211;-64
2022/06/27 01:09:32;;;;;;;2.97;1.10;;;;;;;17.34;100.00;98082.47;5051697;28;20212;-64
2022/06/27 01:12:00;;;;;;;1.70;0.90;;;;;;;17.29;100.00;98050.00;5053531;28;20215;-65
2022/06/27 01:14:26;;;;;;;2.07;1.10;;;;;;;17.24;100.00;97990.84;5053351;28;20215;-64
2022/06/27 01:16:53;;;;;;;2.20;1.00;;;;;;;17.11;100.00;97954.81;5053473;28;20249;-65
2022/06/27 01:19:19;;;;;;;1.40;1.10;;;;;;;16.97;100.00;98009.56;5053641;28;20212;-65
2022/06/27 01:21:48;;;;;;;1.83;1.00;;;;;;;17.03;100.00;97982.28;5053536;28;20579;-65
2022/06/27 01:24:16;;;;;;;1.67;0.87;;;;;;;16.98;100.00;97939.16;5039731;28;20220;-64
2022/06/27 01:26:43;;;;;;;1.30;0.80;;;;;;;16.87;100.00;97963.41;5053359;28;20216;-64
2022/06/27 01:29:11;;;;;;;2.37;0.83;;;;;;;16.86;100.00;97928.84;5053013;28;20269;-64
2022/06/27 01:31:39;;;;;;;2.10;0.80;;;;;;;16.83;100.00;97929.97;5053274;28;20219;-64
2022/06/27 01:34:06;;;;;;;1.87;0.90;;;;;;;16.75;100.00;97913.88;5052973;28;20674;-63
2022/06/27 01:39:16;;;;;;;1.63;1.00;;;;;;;16.76;100.00;97880.84;5051948;28;20224;-64
2022/06/27 01:41:45;;;;;;;2.07;1.00;;;;;;;16.77;100.00;97871.84;5052956;28;20212;-64
2022/06/27 01:44:12;;;;;;;1.87;1.00;;;;;;;16.76;100.00;97864.84;5052972;28;20674;-65
2022/06/27 01:46:42;;;;;;;1.30;1.00;;;;;;;16.69;100.00;97855.75;5052334;28;20298;-65
2022/06/27 01:49:08;;;;;;;1.43;0.90;;;;;;;16.68;100.00;97862.09;5053175;28;20223;-63
2022/06/27 01:51:36;;;;;;;1.93;1.00;;;;;;;16.61;100.00;97871.69;5053026;28;20295;-65
2022/06/27 01:54:03;;;;;;;1.27;1.00;;;;;;;16.58;100.00;97881.81;5053045;28;20689;-64
2022/06/27 01:56:32;;;;;;;4.03;1.30;;;;;;;16.68;100.00;97872.75;5052943;28;20232;-63
2022/06/27 01:58:58;;;;;;;3.03;1.40;;;;;;;16.69;100.00;97873.59;5052880;28;20208;-66
2022/06/27 02:01:26;;;;;;;3.33;1.30;;;;;;;16.70;100.00;97876.09;5050958;28;20783;-64
2022/06/27 02:03:53;;;;;;;1.77;1.30;;;;;;;16.72;100.00;97874.16;5052798;28;20728;-63
2022/06/27 02:06:20;;;;;;;1.20;1.07;;;;;;;16.75;100.00;97868.50;5052944;28;20212;-63
2022/06/27 02:08:47;;;;;;;1.40;1.20;;;;;;;16.80;100.00;97876.91;5052976;28;20227;-63
2022/06/27 02:11:14;;;;;;;1.57;1.30;;;;;;;16.90;100.00;97883.03;5052875;28;20212;-63
2022/06/27 02:13:43;;;;;;;1.77;1.23;;;;;;;17.03;100.00;97895.97;5052788;28;20287;-62
2022/06/27 02:16:12;;;;;;;2.50;1.60;;;;;;;17.03;100.00;97872.81;5052801;28;20235;-62
2022/06/27 02:18:40;;;;;;;2.50;1.90;;;;;;;17.08;100.00;97859.81;5052575;28;20615;-62
2022/06/27 02:21:08;;;;;;;3.73;2.57;;;;;;;17.10;100.00;97868.53;5052599;28;20223;-62
2022/06/27 02:23:34;;;;;;;2.90;2.47;;;;;;;17.05;100.00;97870.81;5052626;28;20216;-62
2022/06/27 02:26:01;;;;;;;2.63;2.10;;;;;;;16.97;100.00;97873.41;5053661;28;20299;-62
2022/06/27 02:28:29;;;;;;;5.33;1.77;;;;;;;16.91;100.00;97866.00;5051070;28;20222;-62
2022/06/27 02:30:57;;;;;;;3.00;2.70;;;;;;;16.87;100.00;97872.63;5052762;28;20576;-62
2022/06/27 02:33:24;;;;;;;4.20;2.50;;;;;;;16.88;100.00;97873.47;5052664;28;20208;-62
2022/06/27 02:35:54;;;;;;;2.43;1.80;;;;;;;16.86;100.00;97884.31;5052334;28;20219;-62
2022/06/27 02:38:23;;;;;;;1.47;1.37;;;;;;;16.80;100.00;97871.56;5052063;28;20258;-62
2022/06/27 02:40:49;;;;;;;2.13;1.30;;;;;;;16.78;100.00;97873.56;5052300;28;20705;-62
2022/06/27 02:43:18;;;;;;;1.93;1.60;;;;;;;16.82;100.00;97869.56;5052262;28;20216;-62
2022/06/27 02:45:46;;;;;;;2.83;1.57;;;;;;;16.79;100.00;97859.22;5052292;28;20212;-62
2022/06/27 02:48:18;;;;;;;1.83;1.47;;;;;;;16.73;100.00;97859.81;5052159;28;20262;-62
2022/06/27 02:50:48;;;;;;;2.50;1.50;;;;;;;16.83;100.00;97862.41;5048635;28;20302;-62
2022/06/27 02:53:20;;;;;;;3.70;2.10;;;;;;;16.80;100.00;97838.69;5033094;28;20220;-63
2022/06/27 02:55:51;;;;;;;2.47;1.50;;;;;;;16.73;100.00;97842.94;5034904;28;20209;-62
2022/06/27 02:58:21;;;;;;;1.83;1.60;;;;;;;16.73;100.00;97865.16;5038651;28;20240;-63
2022/06/27 03:00:50;;;;;;;3.03;1.70;;;;;;;16.76;100.00;97854.16;5038349;28;20224;-63
2022/06/27 03:03:18;;;;;;;3.27;1.50;;;;;;;16.74;100.00;97844.63;5038453;28;20220;-63
2022/06/27 03:05:58;;;;;;;2.30;1.90;;;;;;;16.72;100.00;97834.13;5038031;28;20678;-63
2022/06/27 03:08:25;;;;;;;4.07;1.90;;;;;;;16.69;100.00;97833.56;5055746;28;20208;-63
2022/06/27 03:10:52;;;;;;;3.20;2.00;;;;;;;16.67;100.00;97841.72;5055763;28;20224;-63
2022/06/27 03:13:18;;;;;;;2.40;1.70;;;;;;;16.71;100.00;97853.75;5055746;28;20226;-64
2022/06/27 03:15:45;;;;;;;3.10;2.17;;;;;;;16.69;100.00;97853.09;5055801;28;20298;-64
2022/06/27 03:18:13;;;;;;;4.47;2.47;;;;;;;16.69;100.00;97858.41;5055734;28;20235;-63
2022/06/27 03:20:41;;;;;;;3.33;2.00;;;;;;;16.72;100.00;97847.47;5053928;28;20238;-63
2022/06/27 03:23:08;;;;;;;3.13;2.20;;;;;;;16.67;100.00;97849.75;5055513;28;20213;-63
2022/06/27 03:25:34;;;;;;;2.37;1.90;;;;;;;16.64;100.00;97855.34;5055617;28;20224;-63
2022/06/27 03:28:01;;;;;;;5.43;2.20;;;;;;;16.69;100.00;97852.22;5055734;28;20334;-63
2022/06/27 03:30:28;;;;;;;2.93;2.43;;;;;;;16.71;100.00;97856.44;5055590;28;20216;-63
2022/06/27 03:32:54;;;;;;;2.50;2.20;;;;;;;16.74;100.00;97855.28;5055329;28;20226;-63
2022/06/27 03:35:21;;;;;;;4.23;2.10;;;;;;;16.79;100.00;97847.69;5055812;28;20212;-63
2022/06/27 03:37:49;;;;;;;3.43;2.57;;;;;;;16.85;100.00;97853.28;5055374;28;20262;-63
2022/06/27 03:40:15;;;;;;;4.03;2.13;;;;;;;16.97;100.00;97857.41;5055097;28;20216;-63
2022/06/27 03:42:42;;;;;;;5.57;2.57;;;;;;;17.02;100.00;97876.44;5055340;28;20220;-63
2022/06/27 03:45:09;;;;;;;3.00;2.70;;;;;;;17.07;100.00;97879.50;5053731;28;20585;-63
2022/06/27 03:47:46;;;;;;;4.03;2.57;;;;;;;17.12;100.00;97885.22;5055061;28;20228;-63
2022/06/27 03:50:13;;;;;;;5.73;2.73;;;;;;;17.15;100.00;97887.63;5054959;28;20212;-63
2022/06/27 03:52:39;;;;;;;3.63;2.40;;;;;;;17.16;100.00;97899.97;5054873;28;20254;-63
2022/06/27 03:55:08;;;;;;;2.83;2.20;;;;;;;17.22;100.00;97888.66;5055191;28;20213;-63
2022/06/27 03:57:36;;;;;;;2.63;2.40;;;;;;;17.27;100.00;97873.03;5055046;28;20303;-63
2022/06/27 04:00:04;;;;;;;2.77;2.37;;;;;;;17.32;100.00;97841.34;5055174;28;20215;-63
2022/06/27 04:02:30;;;;;;;3.10;2.53;;;;;;;17.35;100.00;97835.69;5054798;28;20697;-63
2022/06/27 04:04:56;;;;;;;3.63;2.80;;;;;;;17.37;100.00;97839.06;5054910;28;20216;-63
2022/06/27 04:07:23;;;;;;;2.70;2.43;;;;;;;17.33;100.00;97842.19;5054603;28;20690;-63
2022/06/27 04:09:50;;;;;;;3.80;2.30;;;;;;;17.28;100.00;97817.75;5054267;28;20223;-63
2022/06/27 04:12:17;;;;;;;3.57;2.30;;;;;;;17.26;100.00;97838.47;5053336;28;20222;-63
2022/06/27 04:14:44;;;;;;;3.17;2.10;;;;;;;17.28;100.00;97871.19;5054737;28;20216;-63
2022/06/27 04:17:10;;;;;;;4.40;2.27;;;;;;;17.26;100.00;97849.97;5054650;28;20215;-63
2022/06/27 04:19:37;;;;;;;3.27;2.20;;;;;;;17.22;100.00;97847.75;5054698;28;20216;-62
2022/06/27 04:22:04;;;;;;;3.43;2.30;;;;;;;17.23;100.00;97868.97;5054707;28;20212;-63
2022/06/27 04:24:31;;;;;;;3.47;2.37;;;;;;;17.32;100.00;97880.56;5054626;28;20215;-63
2022/06/27 04:26:58;;;;;;;3.87;2.27;;;;;;;17.35;100.00;97862.41;5054593;28;20587;-63
2022/06/27 04:29:26;;;;;;;3.77;2.23;;;;;;;17.37;100.00;97857.78;5054164;28;20222;-63
2022/06/27 04:31:53;;;;;;;3.43;2.30;;;;;;;17.43;100.00;97833.09;5054019;28;20216;-63
2022/06/27 04:34:20;;;;;;;2.90;2.13;;;;;;;17.44;100.00;97829.44;5054055;28;20208;-63
2022/06/27 04:36:47;;;;;;;3.50;2.40;;;;;;;17.51;100.00;97819.84;5054274;28;20266;-62
2022/06/27 04:39:15;;;;;;;4.27;2.77;;;;;;;17.53;100.00;97822.31;5052396;28;20246;-63
2022/06/27 04:41:43;;;;;;;4.00;2.50;;;;;;;17.60;100.00;97818.88;5054282;28;20635;-63
2022/06/27 04:44:11;;;;;;;4.60;3.00;;;;;;;17.58;100.00;97794.16;5053875;28;20220;-63
2022/06/27 04:46:40;;;;;;;4.10;2.90;;;;;;;17.64;100.00;97777.50;5054035;28;20311;-63
2022/06/27 04:49:06;;;;;;;3.10;2.60;;;;;;;17.69;100.00;97785.84;5053862;28;20216;-63
2022/06/27 04:51:33;;;;;;;3.77;2.80;;;;;;;17.72;100.00;97790.03;5053764;28;20673;-64
2022/06/27 04:54:00;;;;;;;4.03;2.90;;;;;;;17.85;100.00;97791.28;5053965;28;20307;-63
2022/06/27 04:56:26;;;;;;;5.80;3.93;;;;;;;18.06;100.00;97794.41;5053883;28;20216;-63
2022/06/27 04:58:53;;;;;;;4.03;3.10;;;;;;;18.26;100.00;97794.97;5053782;28;20398;-63
2022/06/27 05:01:20;;;;;;;3.93;2.80;;;;;;;18.22;100.00;97807.84;5053559;28;20220;-63
2022/06/27 05:03:47;;;;;;;4.60;3.20;;;;;;;18.20;100.00;97838.44;5052109;28;20216;-63
2022/06/27 05:06:14;;;;;;;4.60;3.37;;;;;;;18.35;100.00;97836.88;5053329;28;20212;-63
2022/06/27 05:08:41;;;;;;;3.57;2.67;;;;;;;18.67;100.00;97845.84;5053743;28;20333;-63
2022/06/27 05:11:07;;;;;;;4.97;2.97;;;;;;;19.40;100.00;97842.31;5053405;28;20216;-63
2022/06/27 05:13:34;;;;;;;3.83;2.53;;;;;;;20.43;100.00;97837.72;5053614;28;20228;-64
2022/06/27 05:16:00;;;;;;;4.50;2.07;;;;;;;21.37;100.00;97847.28;5051474;28;20216;-64
2022/06/27 05:18:27;;;;;;;2.73;1.80;;;;;;;21.82;100.00;97898.38;5053119;28;20239;-64
2022/06/27 05:20:55;;;;;;;2.93;1.97;;;;;;;21.79;100.00;97914.91;5052425;28;20586;-65
2022/06/27 05:23:21;;;;;;;3.27;1.70;;;;;;;21.46;100.00;97924.19;5053511;28;20212;-64
2022/06/27 05:25:48;;;;;;;3.23;1.80;;;;;;;21.11;100.00;97927.44;5053295;28;20220;-65
2022/06/27 05:28:14;;;;;;;1.93;1.70;;;;;;;20.81;100.00;97943.50;5053399;28;20551;-65
2022/06/27 05:30:41;;;;;;;2.03;1.70;;;;;;;20.52;100.00;97952.16;5051517;28;20212;-64
2022/06/27 05:33:07;;;;;;;3.67;1.63;;;;;;;20.39;100.00;97951.00;5053292;28;20226;-65
2022/06/27 05:35:34;;;;;;;3.83;1.87;;;;;;;20.39;100.00;97940.28;5053255;28;20218;-65
2022/06/27 05:38:03;;;;;;;2.63;1.90;;;;;;;20.41;100.00;97954.38;5053241;28;20263;-66
2022/06/27 05:40:30;;;;;;;1.73;1.53;;;;;;;20.21;100.00;97956.59;5052831;28;20685;-66
2022/06/27 05:42:57;;;;;;;3.07;1.87;;;;;;;20.11;100.00;97955.09;5053295;28;20220;-66
2022/06/27 05:45:24;;;;;;;3.27;1.70;;;;;;;20.13;100.00;97970.03;5052790;28;20220;-66
2022/06/27 05:47:59;;;;;;;2.67;1.47;;;;;;;20.14;100.00;97987.81;5053065;28;20234;-67
2022/06/27 05:50:26;;;;;;;5.10;1.57;;;;;;;19.91;100.00;98008.22;5053105;28;20703;-67
2022/06/27 05:52:53;;;;;;;4.10;1.70;;;;;;;19.91;100.00;98005.53;5052890;28;20212;-67
2022/06/27 05:55:22;;;;;;;3.03;1.70;;;;;;;20.04;100.00;98003.19;5051170;28;20239;-68
2022/06/27 05:57:49;;;;;;;4.13;1.80;;;;;;;20.17;100.00;97998.19;5053091;28;20236;-69
2022/06/27 06:00:17;;;;;;;1.73;1.50;;;;;;;20.21;100.00;98001.38;5053056;28;20211;-70
2022/06/27 06:02:44;;;;;;;1.30;1.20;;;;;;;20.21;100.00;98022.84;5053029;28;20632;-70
2022/06/27 06:05:12;;;;;;;4.97;1.60;;;;;;;20.28;100.00;98042.63;5038676;28;20220;-70
2022/06/27 06:07:39;;;;;;;1.30;1.20;;;;;;;20.28;100.00;98042.63;5052774;28;20216;-71
2022/06/27 06:10:07;;;;;;;3.83;1.50;;;;;;;20.64;100.00;98031.34;5052903;28;20216;-70
2022/06/27 06:12:35;;;;;;;3.17;1.33;;;;;;;20.52;100.00;98035.41;5052929;28;20223;-71
2022/06/27 06:15:02;;;;;;;3.27;1.40;;;;;;;20.28;100.00;98042.63;5051008;28;20306;-70
2022/06/27 06:17:29;;;;;;;2.70;1.20;;;;;;;20.44;100.00;98038.09;5052504;28;20220;-71
2022/06/27 06:19:55;;;;;;;1.13;1.03;;;;;;;20.49;100.00;98051.00;5051044;28;20246;-72
2022/06/27 06:22:22;;;;;;;2.33;1.10;;;;;;;20.65;100.00;98054.50;5048498;28;20620;-73
2022/06/27 06:24:51;;;;;;;1.80;0.93;;;;;;;20.65;100.00;98059.88;5051242;28;20720;-73
2022/06/27 06:27:18;;;;;;;1.70;1.20;;;;;;;20.52;100.00;98040.78;5051857;28;20212;-74
2022/06/27 06:29:47;;;;;;;1.80;1.00;;;;;;;20.30;100.00;98046.81;5044221;28;20387;-73
2022/06/27 06:32:13;;;;;;;2.60;1.23;;;;;;;20.02;100.00;98048.13;5048735;28;20745;-73
2022/06/27 06:34:40;;;;;;;2.93;1.50;;;;;;;19.44;100.00;98036.63;5051684;28;20214;-73
2022/06/27 06:37:09;;;;;;;2.50;1.57;;;;;;;19.30;100.00;98034.56;5042722;28;20214;-72
2022/06/27 06:39:36;;;;;;;1.40;1.30;;;;;;;19.66;100.00;98035.16;5055479;28;20301;-73
2022/06/27 06:42:03;;;;;;;3.63;2.10;;;;;;;19.60;100.00;98036.69;5055969;28;20226;-73
2022/06/27 06:44:30;;;;;;;2.37;1.50;;;;;;;19.48;100.00;98043.34;5052234;28;20220;-74
2022/06/27 06:46:58;;;;;;;2.13;1.47;;;;;;;19.72;100.00;98046.09;5044083;28;20577;-74
2022/06/27 06:49:25;;;;;;;2.17;1.30;;;;;;;20.00;100.00;98055.50;5054448;28;20216;-75
2022/06/27 06:51:52;;;;;;;1.60;1.37;;;;;;;20.44;100.00;98053.34;5056377;28;20304;-75
2022/06/27 06:54:20;;;;;;;1.37;1.20;;;;;;;20.85;100.00;98055.81;5056342;28;20212;-74
2022/06/27 06:56:49;;;;;;;1.80;1.20;;;;;;;21.07;100.00;98056.94;5043989;28;20218;-74
2022/06/27 06:59:16;;;;;;;2.03;1.30;;;;;;;20.95;100.00;98056.50;5056153;28;20243;-75
2022/06/27 07:01:43;;;;;;;2.00;1.30;;;;;;;20.92;100.00;98056.81;5055957;28;20224;-75
2022/06/27 07:04:11;;;;;;;1.70;1.20;;;;;;;20.99;100.00;98056.97;5052278;28;20216;-74
2022/06/27 07:06:38;;;;;;;1.60;1.30;;;;;;;21.11;100.00;98059.13;5044023;28;20269;-75
2022/06/27 07:09:05;;;;;;;2.37;1.30;;;;;;;21.23;100.00;98067.66;5056084;28;20672;-75
2022/06/27 07:11:32;;;;;;;1.40;1.17;;;;;;;21.14;100.00;98069.53;5055985;28;20223;-74
2022/06/27 07:14:00;;;;;;;1.30;1.20;;;;;;;21.02;100.00;98076.28;5053901;28;20211;-75
2022/06/27 07:16:27;;;;;;;1.43;1.30;;;;;;;20.81;100.00;98080.50;5055769;28;20224;-75
2022/06/27 07:18:55;;;;;;;2.80;1.20;;;;;;;20.63;100.00;98086.09;5055614;28;20286;-75
2022/06/27 07:21:24;;;;;;;1.60;1.50;;;;;;;20.68;100.00;98081.03;5055556;28;20215;-73
2022/06/27 07:23:52;;;;;;;1.60;1.50;;;;;;;20.46;100.00;98072.81;5052012;28;20224;-76
2022/06/27 07:26:20;;;;;;;1.80;1.70;;;;;;;20.30;100.00;98062.09;5043436;28;20251;-74
2022/06/27 07:28:47;;;;;;;2.00;1.70;;;;;;;20.22;100.00;98060.25;5055298;28;20216;-74
2022/06/27 07:31:15;;;;;;;1.50;1.40;;;;;;;20.16;100.00;98054.69;5055412;28;20218;-74
2022/06/27 07:33:45;;;;;;;1.97;1.77;;;;;;;20.12;100.00;98059.56;5050272;28;20212;-75
2022/06/27 07:36:14;;;;;;;1.87;1.77;;;;;;;20.12;100.00;98064.09;5053717;28;20300;-75
2022/06/27 07:38:43;;;;;;;1.70;1.60;;;;;;;20.16;100.00;98065.44;5054120;28;20255;-74
2022/06/27 07:41:10;;;;;;;2.17;1.63;;;;;;;20.18;100.00;98074.19;5052514;28;20220;-74
2022/06/27 07:43:37;;;;;;;2.10;1.90;;;;;;;20.15;100.00;98075.34;5052328;28;20216;-71
2022/06/27 07:46:05;;;;;;;2.03;1.60;;;;;;;20.18;100.00;98091.09;5051392;28;20588;-74
2022/06/27 07:48:32;;;;;;;1.80;1.70;;;;;;;20.28;100.00;98094.47;5052826;28;20417;-73
2022/06/27 07:50:59;;;;;;;1.77;1.67;;;;;;;20.40;100.00;98103.03;5052985;28;20216;-73
2022/06/27 07:53:26;;;;;;;2.20;1.50;;;;;;;20.58;100.00;98109.91;5051510;28;20212;-73
2022/06/27 07:55:56;;;;;;;1.60;1.50;;;;;;;20.69;100.00;98112.25;5051013;28;20217;-72
2022/06/27 07:58:26;;;;;;;1.40;1.30;;;;;;;20.72;100.00;98117.28;5042413;28;20227;-73
2022/06/27 08:00:53;;;;;;;1.80;1.70;;;;;;;20.75;100.00;98121.47;5036493;28;20255;-74
2022/06/27 08:06:09;;;;;;;1.60;1.50;;;;;;;20.78;100.00;98129.22;5034747;28;20211;-75
2022/06/27 08:08:37;;;;;;;1.97;1.77;;;;;;;20.75;100.00;98135.75;5034304;28;20216;-73
2022/06/27 08:11:07;;;;;;;1.70;1.60;;;;;;;20.83;100.00;98141.13;5049802;28;20678;-73
2022/06/27 08:13:35;;;;;;;2.23;1.33;;;;;;;20.91;100.00;98141.13;5052202;28;20208;-73
2022/06/27 08:16:02;;;;;;;1.93;1.63;;;;;;;21.02;100.00;98151.53;5051927;28;20223;-73
2022/06/27 08:18:31;;;;;;;1.63;1.50;;;;;;;21.09;100.00;98135.56;5052556;28;20251;-73
2022/06/27 08:20:58;;;;;;;1.50;1.40;;;;;;;21.07;100.00;98138.44;5052162;28;20212;-74
2022/06/27 08:23:24;;;;;;;1.77;1.67;;;;;;;20.96;100.00;98144.16;5051666;28;20222;-74
2022/06/27 08:25:51;;;;;;;2.57;1.70;;;;;;;21.10;100.00;98143.44;5052566;28;20212;-74
2022/06/27 08:28:20;;;;;;;1.70;1.60;;;;;;;21.47;100.00;98140.16;5052924;28;20215;-73
2022/06/27 08:30:48;;;;;;;1.80;1.33;;;;;;;21.89;100.00;98140.69;5052988;28;20224;-73
2022/06/27 08:33:14;;;;;;;1.37;1.27;;;;;;;21.75;100.00;98144.94;5051459;28;20307;-73
2022/06/27 08:35:47;;;;;;;3.60;1.60;;;;;;;21.72;100.00;98148.00;5052615;28;20208;-74
2022/06/27 08:38:15;;;;;;;2.47;2.27;;;;;;;21.61;100.00;98142.13;5052844;28;20244;-73
2022/06/27 08:40:42;;;;;;;3.60;2.70;;;;;;;21.43;100.00;98150.44;5052923;28;20207;-74
2022/06/27 08:43:11;;;;;;;2.10;1.90;;;;;;;21.33;100.00;98162.41;5052695;28;20218;-74
2022/06/27 08:45:39;;;;;;;2.63;1.90;;;;;;;21.32;100.00;98169.63;5052923;28;20220;-73
2022/06/27 08:48:08;;;;;;;1.90;1.80;;;;;;;21.38;100.00;98158.16;5052771;28;20212;-74
2022/06/27 08:50:36;;;;;;;2.77;1.60;;;;;;;21.50;100.00;98167.53;5052743;28;20323;-73
2022/06/27 08:53:04;;;;;;;1.53;1.40;;;;;;;21.37;100.00;98161.88;5052806;28;20578;-73
2022/06/27 08:55:33;;;;;;;1.60;1.50;;;;;;;21.32;100.00;98172.31;5052521;28;20216;-73
2022/06/27 08:58:03;;;;;;;1.50;1.40;;;;;;;21.27;100.00;98188.09;5052450;28;20215;-73
2022/06/27 09:00:30;;;;;;;1.93;1.80;;;;;;;21.04;100.00;98173.69;5050718;28;20758;-73
2022/06/27 09:02:58;;;;;;;1.80;1.70;;;;;;;20.91;100.00;98173.38;5052645;28;20210;-73
2022/06/27 09:05:27;;;;;;;1.60;1.50;;;;;;;20.99;100.00;98168.00;5052560;28;20318;-73
2022/06/27 09:07:55;;;;;;;2.03;1.50;;;;;;;21.09;100.00;98167.81;5052133;28;20222;-73
2022/06/27 09:10:27;;;;;;;1.67;1.57;;;;;;;21.21;100.00;98167.28;5038889;28;20581;-74
2022/06/27 09:12:55;;;;;;;1.50;1.40;;;;;;;21.48;100.00;98158.81;5052467;28;20222;-73
2022/06/27 09:15:22;;;;;;;1.67;1.57;;;;;;;21.61;100.00;98169.00;5052358;28;20311;-73
2022/06/27 09:18:01;;;;;;;3.03;1.60;;;;;;;21.67;100.00;98181.81;5052011;28;20216;-73
2022/06/27 09:20:46;;;;;;;1.40;1.30;;;;;;;21.55;100.00;98185.84;5052247;28;20262;-73
2022/06/27 09:23:32;;;;;;;1.87;1.67;;;;;;;21.45;100.00;98179.84;5052032;28;20238;-74
2022/06/27 09:26:00;;;;;;;1.90;1.80;;;;;;;21.29;100.00;98188.78;5049200;28;20212;-73
2022/06/27 09:28:41;;;;;;;1.40;1.30;;;;;;;21.09;100.00;98181.25;5051825;28;20255;-75
2022/06/27 09:31:13;;;;;;;2.47;1.43;;;;;;;20.93;100.00;98179.44;5051970;28;20216;-73
2022/06/27 09:33:42;;;;;;;1.93;1.73;;;;;;;20.89;100.00;98177.22;5049389;28;20218;-72
2022/06/27 09:36:10;;;;;;;1.60;1.50;;;;;;;20.85;100.00;98182.06;5051698;28;20219;-72
2022/06/27 09:38:40;;;;;;;1.70;1.60;;;;;;;20.80;100.00;98167.47;5051405;28;20239;-72
2022/06/27 09:41:11;;;;;;;1.73;1.50;;;;;;;20.90;100.00;98177.06;5051652;28;20215;-73
2022/06/27 09:43:42;;;;;;;2.77;1.70;;;;;;;20.93;100.00;98173.22;5051911;28;20212;-72
2022/06/27 09:46:10;;;;;;;2.20;2.00;;;;;;;20.98;100.00;98160.13;5051538;28;20222;-72
2022/06/27 09:48:39;;;;;;;3.10;1.90;;;;;;;20.98;100.00;98158.25;5051586;28;20219;-75
2022/06/27 09:51:07;;;;;;;2.33;2.10;;;;;;;21.08;100.00;98156.22;5051556;28;20217;-72
2022/06/27 09:53:34;;;;;;;2.00;1.70;;;;;;;21.35;100.00;98157.69;5050634;28;20299;-75
2022/06/27 09:56:01;;;;;;;2.03;1.93;;;;;;;21.74;100.00;98156.72;5051721;28;20218;-72
2022/06/27 09:58:29;;;;;;;2.63;2.20;;;;;;;21.84;99.09;98172.66;5051742;28;20212;-75
2022/06/27 10:00:55;;;;;;;2.40;2.23;;;;;;;21.97;97.96;98181.84;5051597;28;20236;-74
2022/06/27 10:03:24;;;;;;;2.93;2.40;;;;;;;21.99;97.03;98184.34;5051653;28;20222;-74
2022/06/27 10:05:51;;;;;;;3.17;2.50;;;;;;;22.15;95.83;98190.50;5051634;28;20212;-74
2022/06/27 10:08:19;;;;;;;2.90;2.60;;;;;;;22.27;95.91;98193.63;5056106;28;20219;-74
2022/06/27 10:11:08;;;;;;;3.00;2.80;;;;;;;22.65;92.72;98192.72;5058201;28;20222;-80
2022/06/27 10:13:36;;;;;;;2.80;2.60;;;;;;;22.63;89.69;98192.06;5047128;28;20216;-79
2022/06/27 10:16:08;;;;;;;3.50;2.90;;;;;;;22.52;91.85;98204.13;5058319;28;20222;-80
2022/06/27 10:19:03;;;;;;;2.60;2.40;;;;;;;22.42;92.05;98214.22;5056350;28;20693;-82
2022/06/27 10:21:31;;;;;;;2.90;2.70;;;;;;;22.48;91.81;98224.31;5047184;28;20211;-77
2022/06/27 10:24:36;;;;;;;2.93;2.50;;;;;;;22.35;92.19;98234.81;5058131;28;20216;-78
2022/06/27 10:27:08;;;;;;;3.10;2.63;;;;;;;22.41;92.01;98239.50;5057541;28;20314;-74
2022/06/27 10:29:48;;;;;;;3.20;2.90;;;;;;;22.40;92.90;98248.59;5057909;28;20724;-77
2022/06/27 10:32:46;;;;;;;2.67;2.47;;;;;;;22.48;95.15;98256.66;5057742;28;20215;-78
2022/06/27 10:35:15;;;;;;;2.90;2.60;;;;;;;22.36;93.33;98247.25;5032956;28;20223;-78
2022/06/27 10:37:43;;;;;;;3.30;2.53;;;;;;;22.36;94.59;98260.72;5057782;28;20702;-77
2022/06/27 10:40:55;;;;;;;2.53;2.30;;;;;;;22.45;93.90;98250.78;5057573;28;20254;-77
2022/06/27 10:43:42;;;;;;;3.53;2.43;;;;;;;22.64;91.43;98259.25;5049093;28;20220;-79
2022/06/27 10:46:43;;;;;;;2.43;2.23;;;;;;;22.73;89.15;98257.34;5055512;28;20254;-77
2022/06/27 10:49:21;;;;;;;2.77;2.53;;;;;;;23.03;88.87;98245.69;5045891;28;20677;-77
2022/06/27 10:51:48;;;;;;;2.37;2.17;;;;;;;23.22;89.47;98251.41;5056993;28;20212;-79
2022/06/27 10:54:14;;;;;;;2.73;2.23;;;;;;;23.59;86.88;98248.69;5056939;28;20219;-79
2022/06/27 10:56:44;;;;;;;2.20;2.00;;;;;;;23.74;83.73;98246.88;5054471;28;20290;-73
2022/06/27 11:00:02;;;;;;;2.40;2.20;;;;;;;23.48;83.99;98243.75;5056397;28;20211;-76
2022/06/27 11:02:33;;;;;;;3.07;2.20;;;;;;;23.43;83.26;98238.09;5046414;28;20219;-74
2022/06/27 11:05:00;;;;;;;2.40;1.93;;;;;;;23.35;82.28;98245.41;5056755;28;20723;-78
2022/06/27 11:07:27;;;;;;;1.93;1.77;;;;;;;23.36;82.57;98237.13;5056293;28;20223;-74
2022/06/27 11:09:54;;;;;;;2.03;1.87;;;;;;;23.46;82.43;98242.28;5055999;28;20219;-74
2022/06/27 11:12:23;;;;;;;2.20;2.10;;;;;;;23.54;82.70;98243.00;5054672;28;20705;-74
2022/06/27 11:14:51;;;;;;;2.23;2.03;;;;;;;23.67;82.06;98251.34;5053882;28;20220;-73
2022/06/27 11:17:40;;;;;;;2.17;1.70;;;;;;;23.56;80.66;98254.47;5057649;28;20248;-74
2022/06/27 11:20:21;;;;;;;2.23;1.93;;;;;;;23.40;81.55;98260.03;5044444;28;20323;-78
2022/06/27 11:22:51;;;;;;;2.50;1.77;;;;;;;23.45;80.71;98254.91;5054685;28;20216;-74
2022/06/27 11:25:20;;;;;;;3.17;1.67;;;;;;;23.46;81.17;98271.97;5050033;28;20220;-74
2022/06/27 11:27:52;;;;;;;3.13;1.93;;;;;;;23.51;79.63;98273.06;5054189;28;20219;-74
2022/06/27 11:33:21;;;;;;;2.23;1.87;;;;;;;23.59;79.27;98269.47;5051591;28;20357;-74
2022/06/27 11:35:48;;;;;;;2.60;1.60;;;;;;;23.76;78.53;98261.00;5053925;28;20235;-74
2022/06/27 11:38:22;;;;;;;1.83;1.73;;;;;;;23.97;77.31;98274.66;5052462;28;20263;-74
2022/06/27 11:41:00;;;;;;;2.50;1.70;;;;;;;23.91;78.50;98269.16;5053783;28;20232;-74
2022/06/27 11:43:56;;;;;;;2.13;1.80;;;;;;;24.02;76.04;98264.09;5049252;28;20265;-75